Time;durP1;ratioP1;P1;durP2;ratioP2;P2;SDS_P1;SDS_P2;PMS_P1;PMS_P2;Temp;Humidity;BMP_temperature;BMP_pressure;BME280_temperature;BME280_humidity;BME280_pressure;Samples;Min_cycle;Max_cycle;Signal;HPM_P1;HPM_P2
2021/12/19 11:19:43;;;;;;;7.60;5.57;;;;;;;6.43;100.00;103096.84;5309552;27;20388;-76
2021/12/19 11:22:26;;;;;;;10.20;5.93;;;;;;;6.51;100.00;103097.66;5317552;28;20037;-75
2021/12/19 11:25:00;;;;;;;7.07;5.53;;;;;;;6.52;100.00;103088.97;5314457;27;20023;-77
2021/12/19 11:27:33;;;;;;;8.90;5.63;;;;;;;6.56;100.00;103083.75;5321881;28;20912;-79
2021/12/19 11:30:05;;;;;;;9.63;6.22;;;;;;;6.63;100.00;103067.22;5310602;28;20474;-80
2021/12/19 11:32:48;;;;;;;6.27;4.47;;;;;;;6.65;100.00;103057.63;5326234;27;20035;-76
2021/12/19 11:35:23;;;;;;;8.80;4.33;;;;;;;6.77;100.00;103067.13;5318589;27;20314;-75
2021/12/19 11:38:01;;;;;;;6.90;5.73;;;;;;;6.80;100.00;103061.00;5331760;27;20054;-77
2021/12/19 11:40:35;;;;;;;10.33;6.77;;;;;;;6.76;100.00;103060.16;5312398;27;20032;-76
2021/12/19 11:43:09;;;;;;;9.27;6.38;;;;;;;6.80;100.00;103053.19;5310852;28;20031;-76
2021/12/19 11:48:31;;;;;;;9.37;6.70;;;;;;;6.97;100.00;103053.91;5326995;28;20038;-79
2021/12/19 11:51:05;;;;;;;9.17;6.03;;;;;;;7.05;100.00;103061.66;5311280;28;20020;-79
2021/12/19 11:53:39;;;;;;;9.13;5.93;;;;;;;7.05;100.00;103047.78;5311007;28;20095;-77
2021/12/19 11:56:14;;;;;;;7.70;5.80;;;;;;;7.02;100.00;103043.44;5310412;28;20028;-77
2021/12/19 11:58:49;;;;;;;7.28;5.60;;;;;;;7.06;100.00;103044.28;5297672;28;20028;-72
2021/12/19 12:01:20;;;;;;;6.67;5.57;;;;;;;7.14;100.00;103050.28;5297918;28;20027;-74
2021/12/19 12:03:54;;;;;;;6.93;5.37;;;;;;;7.04;100.00;103031.28;5301399;28;20047;-76
2021/12/19 12:06:38;;;;;;;6.97;5.07;;;;;;;7.10;100.00;103035.56;5299503;28;20036;-75
2021/12/19 12:09:21;;;;;;;8.30;5.13;;;;;;;7.04;100.00;103041.69;5298468;28;20024;-73
2021/12/19 12:12:05;;;;;;;8.73;5.00;;;;;;;7.07;100.00;103040.81;5304897;28;20024;-75
2021/12/19 12:14:59;;;;;;;6.80;5.40;;;;;;;7.12;100.00;103039.03;5303670;28;20032;-78
2021/12/19 12:17:40;;;;;;;5.90;4.87;;;;;;;7.18;100.00;103038.94;5308059;28;20126;-81
2021/12/19 12:20:18;;;;;;;6.87;5.43;;;;;;;7.17;100.00;103034.63;5305651;28;20050;-81
2021/12/19 12:22:59;;;;;;;5.43;4.63;;;;;;;7.09;100.00;103031.22;5309545;28;20593;-82
2021/12/19 12:25:34;;;;;;;7.77;5.07;;;;;;;7.09;100.00;103024.28;5306887;28;20094;-82
2021/12/19 12:28:09;;;;;;;7.17;4.47;;;;;;;7.18;100.00;103006.81;5309081;28;20059;-77
2021/12/19 12:30:45;;;;;;;;;;;;;;;7.34;100.00;103017.94;5297074;28;20655;-79
2021/12/19 12:33:20;;;;;;;12.63;5.47;;;;;;;7.20;100.00;103011.13;5293858;28;19962;-78
2021/12/19 12:35:54;;;;;;;4.47;3.57;;;;;;;7.12;99.61;103010.38;5291851;28;20028;-83
2021/12/19 12:38:26;;;;;;;5.47;4.10;;;;;;;7.10;99.58;103004.28;5292930;28;20024;-83
2021/12/19 12:41:05;;;;;;;7.13;3.83;;;;;;;7.18;100.00;103005.06;5294671;28;20031;-84
2021/12/19 12:43:43;;;;;;;7.03;4.70;;;;;;;7.11;100.00;103006.00;5295082;28;20020;-83
2021/12/19 12:46:20;;;;;;;5.67;4.43;;;;;;;7.13;100.00;102992.09;5294304;28;20028;-82
2021/12/19 12:48:54;;;;;;;5.27;4.00;;;;;;;7.04;100.00;103001.72;5292839;28;20137;-82
2021/12/19 12:51:41;;;;;;;6.50;4.72;;;;;;;7.16;100.00;102993.78;5294925;28;20036;-83
2021/12/19 12:54:24;;;;;;;6.13;4.60;;;;;;;7.24;100.00;102991.13;5294728;28;20032;-83
2021/12/19 12:56:58;;;;;;;6.33;4.50;;;;;;;7.25;99.64;103001.53;5295051;28;20103;-81
2021/12/19 12:59:36;;;;;;;8.80;6.13;;;;;;;7.22;100.00;103004.16;5294606;28;20683;-82
2021/12/19 13:04:46;;;;;;;18.50;12.30;;;;;;;7.22;100.00;102988.53;5292385;28;20032;-74
2021/12/19 13:07:23;;;;;;;11.33;7.57;;;;;;;7.31;100.00;102984.09;5294303;28;20019;-77
2021/12/19 13:09:57;;;;;;;7.97;5.67;;;;;;;7.30;99.54;102984.94;5294278;28;20028;-76
2021/12/19 13:12:33;;;;;;;7.50;5.70;;;;;;;7.34;99.48;102976.22;5295075;28;20024;-78
2021/12/19 13:15:07;;;;;;;7.27;5.80;;;;;;;7.36;98.98;102971.88;5294735;28;20314;-78
2021/12/19 13:17:41;;;;;;;8.80;5.60;;;;;;;7.34;98.59;102965.81;5286681;28;20044;-85
2021/12/19 13:20:20;;;;;;;7.95;5.97;;;;;;;7.36;99.00;102964.91;5292279;28;20028;-82
2021/12/19 13:22:54;;;;;;;9.90;6.43;;;;;;;7.31;99.60;102971.94;5293687;28;20028;-83
2021/12/19 13:25:28;;;;;;;;;;;;;;;7.50;98.91;102975.16;5293866;28;20024;-83
2021/12/19 13:28:03;;;;;;;8.57;5.10;;;;;;;7.34;98.75;102965.81;5294575;28;19912;-83
2021/12/19 13:30:40;;;;;;;9.30;5.97;;;;;;;7.23;98.92;102958.09;5293792;28;20054;-82
2021/12/19 13:33:14;;;;;;;10.37;6.13;;;;;;;7.32;99.69;102954.53;5293546;28;20024;-83
2021/12/19 13:35:52;;;;;;;10.27;6.10;;;;;;;7.39;99.42;102958.78;5292267;28;20020;-84
2021/12/19 13:38:24;;;;;;;11.93;6.13;;;;;;;7.24;99.68;102952.88;5291282;28;20035;-83
2021/12/19 13:40:58;;;;;;;11.90;6.07;;;;;;;7.31;98.39;102940.66;5293574;28;20028;-82
2021/12/19 13:43:32;;;;;;;9.27;6.05;;;;;;;7.32;98.40;102938.88;5291930;28;20035;-82
2021/12/19 13:46:10;;;;;;;8.07;6.25;;;;;;;7.31;97.93;102943.25;5293801;28;20043;-81
2021/12/19 13:48:45;;;;;;;10.83;5.17;;;;;;;7.25;97.78;102938.97;5292432;28;20016;-83
2021/12/19 13:51:27;;;;;;;7.83;5.20;;;;;;;7.31;97.95;102939.78;5293636;28;20085;-82
2021/12/19 13:54:03;;;;;;;11.37;6.80;;;;;;;7.29;97.76;102947.63;5293545;28;20428;-83
2021/12/19 13:56:36;;;;;;;10.83;6.40;;;;;;;7.28;98.60;102934.59;5292887;28;20040;-82
2021/12/19 13:59:22;;;;;;;12.83;6.33;;;;;;;7.41;98.13;102945.72;5292616;28;20118;-83
2021/12/19 14:01:54;;;;;;;11.63;6.63;;;;;;;7.28;97.27;102942.44;5292723;28;20031;-83
2021/12/19 14:04:29;;;;;;;10.33;6.13;;;;;;;7.25;98.74;102946.78;5291954;28;20024;-82
2021/12/19 14:07:03;;;;;;;;;;;;;;;7.46;98.27;102939.59;5293837;28;20374;-83
2021/12/19 14:09:44;;;;;;;11.17;5.70;;;;;;;7.30;98.50;102927.59;5292498;28;20009;-82
2021/12/19 14:12:51;;;;;;;10.30;6.00;;;;;;;7.20;98.34;102930.34;5291685;28;20028;-82
2021/12/19 14:15:16;;;;;;;13.80;5.83;;;;;;;7.34;98.33;102944.94;5286260;28;20043;-81
2021/12/19 14:17:49;;;;;;;11.23;6.10;;;;;;;7.31;97.76;102945.00;5292281;28;20043;-79
2021/12/19 14:20:35;;;;;;;9.57;5.27;;;;;;;7.34;98.33;102939.72;5291676;28;20580;-77
2021/12/19 14:23:20;;;;;;;9.23;5.50;;;;;;;7.26;97.52;102932.88;5285916;28;20040;-81
2021/12/19 14:25:52;;;;;;;12.17;6.20;;;;;;;7.08;97.66;102928.75;5292519;28;20039;-79
2021/12/19 14:28:29;;;;;;;12.60;6.07;;;;;;;7.10;97.29;102928.72;5292337;28;20111;-76
2021/12/19 14:31:03;;;;;;;15.90;6.90;;;;;;;7.16;97.48;102925.19;5291409;28;20028;-77
2021/12/19 14:33:37;;;;;;;15.68;7.00;;;;;;;7.17;97.52;102927.78;5291472;28;20024;-81
2021/12/19 14:36:10;;;;;;;12.90;7.25;;;;;;;7.23;97.61;102922.47;5291294;28;20081;-82
2021/12/19 14:38:42;;;;;;;11.33;5.80;;;;;;;7.10;96.95;102926.13;5292429;28;20035;-76
2021/12/19 14:41:13;;;;;;;15.37;7.40;;;;;;;7.11;97.76;102918.28;5292415;28;20028;-77
2021/12/19 14:43:45;;;;;;;19.70;5.87;;;;;;;7.12;96.12;102926.97;5292381;28;20495;-80
2021/12/19 14:46:25;;;;;;;13.93;6.37;;;;;;;7.16;97.41;102920.81;5292410;28;20062;-80
2021/12/19 14:49:10;;;;;;;12.00;6.27;;;;;;;7.28;97.16;102919.81;5291750;28;20490;-80
2021/12/19 14:51:41;;;;;;;12.30;5.88;;;;;;;7.18;96.95;102924.28;5290721;28;20020;-80
2021/12/19 14:54:13;;;;;;;19.73;7.03;;;;;;;7.07;97.12;102916.59;5291163;28;20127;-80
2021/12/19 14:56:44;;;;;;;13.67;6.40;;;;;;;7.07;96.54;102915.75;5292271;28;20020;-79
2021/12/19 14:59:17;;;;;;;17.57;5.80;;;;;;;7.06;97.58;102919.22;5292274;28;20073;-79
2021/12/19 15:01:48;;;;;;;13.63;5.67;;;;;;;7.09;97.09;102908.75;5291874;28;20032;-76
2021/12/19 15:04:20;;;;;;;9.70;4.93;;;;;;;7.17;96.64;102908.66;5290531;28;20047;-76
2021/12/19 15:06:58;;;;;;;9.03;4.70;;;;;;;7.05;96.40;102899.25;5291652;28;20028;-86
2021/12/19 15:09:30;;;;;;;17.60;5.67;;;;;;;7.16;96.75;102907.78;5272037;28;20082;-85
2021/12/19 15:12:02;;;;;;;13.20;5.53;;;;;;;7.15;96.37;102898.25;5296351;28;20029;-85
2021/12/19 15:14:33;;;;;;;10.20;5.43;;;;;;;7.12;95.86;102906.13;5291844;28;20762;-84
2021/12/19 15:17:04;;;;;;;13.53;5.80;;;;;;;7.09;96.74;102899.19;5292749;28;20115;-83
2021/12/19 15:19:36;;;;;;;7.57;4.83;;;;;;;7.02;97.52;102894.94;5290433;28;20040;-84
2021/12/19 15:22:07;;;;;;;13.13;6.83;;;;;;;7.22;97.29;102899.03;5295895;28;20046;-84
2021/12/19 15:24:38;;;;;;;10.27;5.70;;;;;;;7.22;96.27;102899.91;5300805;28;20271;-82
2021/12/19 15:27:09;;;;;;;14.00;6.13;;;;;;;7.19;95.50;102892.13;5317322;28;20028;-84
2021/12/19 15:29:41;;;;;;;9.23;4.70;;;;;;;7.02;96.15;102890.59;5298140;28;20040;-77
2021/12/19 15:32:14;;;;;;;6.53;3.90;;;;;;;7.22;96.36;102878.19;5299018;28;20031;-86
2021/12/19 15:34:45;;;;;;;9.67;4.43;;;;;;;6.98;95.44;102883.69;5305257;28;20092;-83
2021/12/19 15:37:16;;;;;;;8.90;3.33;;;;;;;6.97;96.00;102865.47;5294657;28;20580;-79
2021/12/19 15:39:48;;;;;;;9.30;3.70;;;;;;;7.09;95.73;102872.25;5292699;28;20108;-78
2021/12/19 15:42:19;;;;;;;10.37;4.50;;;;;;;6.98;97.17;102865.44;5296111;28;20035;-83
2021/12/19 15:44:50;;;;;;;9.17;4.63;;;;;;;7.06;95.91;102867.09;5296621;28;20409;-81
2021/12/19 15:47:22;;;;;;;11.87;6.23;;;;;;;7.05;96.56;102866.22;5292395;28;20021;-81
2021/12/19 15:49:53;;;;;;;8.60;3.90;;;;;;;6.99;96.06;102871.53;5285127;28;20020;-80
2021/12/19 15:52:24;;;;;;;8.17;3.63;;;;;;;6.80;96.43;102868.25;5273506;28;20039;-80
2021/12/19 15:54:56;;;;;;;6.57;3.33;;;;;;;6.95;95.79;102859.41;5292529;28;20031;-81
2021/12/19 15:57:27;;;;;;;6.47;2.73;;;;;;;6.81;95.88;102857.81;5290735;28;20024;-81
2021/12/19 15:59:59;;;;;;;9.03;3.20;;;;;;;6.95;96.06;102865.47;5291607;28;20048;-82
2021/12/19 16:02:31;;;;;;;4.43;2.73;;;;;;;6.96;95.49;102867.22;5291111;28;20023;-82
2021/12/19 16:05:02;;;;;;;4.30;2.43;;;;;;;6.89;96.63;102858.59;5292577;28;20024;-81
2021/12/19 16:07:34;;;;;;;5.97;3.00;;;;;;;6.92;96.03;102867.25;5296114;28;20019;-82
2021/12/19 16:10:09;;;;;;;5.63;2.90;;;;;;;7.06;96.19;102867.97;5295583;28;20548;-82
2021/12/19 16:12:40;;;;;;;7.40;2.77;;;;;;;6.89;96.64;102862.97;5295443;28;20028;-81
2021/12/19 16:15:15;;;;;;;5.20;2.60;;;;;;;6.92;96.40;102855.09;5295276;28;20026;-81
2021/12/19 16:17:48;;;;;;;6.65;3.33;;;;;;;6.86;95.57;102860.41;5295318;28;20047;-81
2021/12/19 16:20:21;;;;;;;6.53;3.17;;;;;;;7.02;96.01;102863.66;5293681;28;20473;-82
2021/12/19 16:22:53;;;;;;;6.27;2.87;;;;;;;7.00;96.42;102862.81;5295810;28;20416;-81
2021/12/19 16:25:30;;;;;;;7.83;4.10;;;;;;;7.00;96.08;102868.03;5294742;28;20107;-80
2021/12/19 16:28:03;;;;;;;5.30;2.97;;;;;;;6.85;95.18;102848.25;5295818;28;20028;-81
2021/12/19 16:30:34;;;;;;;5.13;3.30;;;;;;;6.94;95.54;102862.91;5294647;28;20038;-81
2021/12/19 16:33:06;;;;;;;5.80;3.90;;;;;;;6.95;96.00;102860.28;5295717;28;20020;-81
2021/12/19 16:35:38;;;;;;;9.97;5.43;;;;;;;6.92;96.66;102860.31;5293858;28;20028;-81
2021/12/19 16:38:12;;;;;;;10.83;6.43;;;;;;;7.09;96.89;102854.03;5295000;28;20024;-83
2021/12/19 16:40:45;;;;;;;6.38;4.10;;;;;;;7.08;96.44;102860.13;5294285;28;20024;-81
2021/12/19 16:43:35;;;;;;;8.33;4.20;;;;;;;7.11;96.18;102860.09;5293975;28;20054;-81
2021/12/19 16:46:12;;;;;;;6.63;3.97;;;;;;;7.04;97.30;102853.22;5295023;28;20032;-80
2021/12/19 16:48:43;;;;;;;7.40;3.40;;;;;;;6.99;97.62;102846.34;5293687;28;20470;-81
2021/12/19 16:51:14;;;;;;;8.37;4.47;;;;;;;7.08;96.79;102849.72;5294734;28;20028;-80
2021/12/19 16:53:46;;;;;;;12.30;4.53;;;;;;;7.07;96.79;102850.59;5294417;28;20051;-81
2021/12/19 16:56:17;;;;;;;9.80;4.27;;;;;;;7.00;97.73;102844.56;5294747;28;20028;-82
2021/12/19 16:58:49;;;;;;;7.43;4.40;;;;;;;6.93;96.93;102845.56;5293968;28;20026;-82
2021/12/19 17:01:20;;;;;;;11.57;5.70;;;;;;;7.06;96.98;102848.84;5293399;28;20103;-76
2021/12/19 17:03:51;;;;;;;9.60;6.23;;;;;;;6.96;97.79;102846.38;5293243;28;20016;-79
2021/12/19 17:06:23;;;;;;;13.00;7.47;;;;;;;6.95;97.27;102833.34;5293916;28;20031;-82
2021/12/19 17:08:54;;;;;;;16.57;9.13;;;;;;;6.96;98.73;102848.13;5293166;28;20432;-83
2021/12/19 17:11:28;;;;;;;17.40;10.87;;;;;;;7.00;97.72;102835.03;5306638;28;20174;-83
2021/12/19 17:14:09;;;;;;;12.50;8.45;;;;;;;6.84;97.96;102843.91;5293597;28;20112;-84
2021/12/19 17:16:42;;;;;;;9.43;7.50;;;;;;;6.98;98.86;102844.59;5292695;28;20066;-80
2021/12/19 17:19:15;;;;;;;11.97;7.90;;;;;;;6.86;98.32;102836.97;5295622;28;20558;-82
2021/12/19 17:21:49;;;;;;;13.33;8.13;;;;;;;6.91;99.10;102848.19;5315190;28;20385;-80
2021/12/19 17:24:20;;;;;;;13.55;7.78;;;;;;;6.87;98.70;102847.34;5301550;28;20107;-75
2021/12/19 17:26:52;;;;;;;16.30;7.50;;;;;;;6.80;98.86;102850.91;5294021;28;20111;-79
2021/12/19 17:29:23;;;;;;;13.00;7.67;;;;;;;6.84;98.60;102846.53;5293781;28;20105;-77
2021/12/19 17:31:55;;;;;;;11.63;8.33;;;;;;;6.89;99.26;102842.13;5308409;28;20024;-79
2021/12/19 17:34:26;;;;;;;13.50;7.93;;;;;;;7.09;99.19;102846.22;5302582;28;20016;-80
2021/12/19 17:37:03;;;;;;;15.37;8.67;;;;;;;6.99;98.77;102846.34;5298107;28;20036;-79
2021/12/19 17:39:41;;;;;;;13.67;7.40;;;;;;;6.88;99.50;102843.84;5310462;28;20549;-78
2021/12/19 17:42:14;;;;;;;14.43;7.60;;;;;;;6.80;99.12;102845.69;5315205;28;20463;-79
2021/12/19 17:44:46;;;;;;;16.87;9.33;;;;;;;6.94;99.15;102836.84;5297902;28;20086;-78
2021/12/19 17:47:17;;;;;;;12.10;7.80;;;;;;;6.81;99.74;102823.13;5303575;28;20032;-78
2021/12/19 17:49:49;;;;;;;14.97;8.47;;;;;;;7.00;99.44;102821.13;5301920;27;20027;-78
2021/12/19 17:52:23;;;;;;;18.70;10.47;;;;;;;6.96;98.76;102817.72;5314352;28;20381;-79
2021/12/19 17:54:54;;;;;;;14.30;10.00;;;;;;;6.87;100.00;102823.91;5297544;28;20028;-79
2021/12/19 17:57:25;;;;;;;16.57;9.87;;;;;;;6.78;100.00;102821.41;5293236;28;20073;-75
2021/12/19 17:59:57;;;;;;;17.07;9.63;;;;;;;6.95;99.75;102825.53;5293198;28;20024;-77
2021/12/19 18:02:28;;;;;;;14.73;9.27;;;;;;;6.97;99.64;102821.16;5293400;28;20038;-76
2021/12/19 18:05:02;;;;;;;13.87;9.83;;;;;;;7.02;99.58;102820.25;5291797;28;20060;-76
2021/12/19 18:07:33;;;;;;;18.30;9.15;;;;;;;6.91;99.62;102811.72;5308688;28;20031;-77
2021/12/19 18:10:07;;;;;;;12.30;8.60;;;;;;;6.93;100.00;102817.75;5291551;28;20020;-78
2021/12/19 18:12:38;;;;;;;13.17;8.83;;;;;;;6.93;99.73;102811.69;5294163;28;20028;-74
2021/12/19 18:15:12;;;;;;;12.47;8.30;;;;;;;6.95;99.71;102804.69;5302534;28;20478;-79
2021/12/19 18:17:45;;;;;;;13.75;9.90;;;;;;;6.96;99.22;102809.91;5291041;28;20115;-83
2021/12/19 18:20:17;;;;;;;12.07;8.77;;;;;;;7.04;99.98;102803.72;5297735;28;20031;-87
2021/12/19 18:22:50;;;;;;;14.83;9.03;;;;;;;6.90;100.00;102799.56;5304713;28;20047;-77
2021/12/19 18:25:22;;;;;;;16.47;10.13;;;;;;;6.95;99.99;102802.09;5296020;27;20035;-77
2021/12/19 18:27:54;;;;;;;11.30;8.17;;;;;;;6.90;99.87;102794.34;5300205;28;20106;-80
2021/12/19 18:30:26;;;;;;;13.17;10.33;;;;;;;6.95;99.82;102789.06;5307508;28;20439;-75
2021/12/19 18:32:58;;;;;;;13.63;11.00;;;;;;;6.96;100.00;102794.28;5290756;28;20027;-77
2021/12/19 18:35:32;;;;;;;13.60;10.10;;;;;;;6.88;100.00;102801.31;5294986;28;20028;-78
2021/12/19 18:38:07;;;;;;;14.10;10.57;;;;;;;6.77;99.59;102785.84;5304436;28;20020;-75
2021/12/19 18:40:40;;;;;;;18.30;12.20;;;;;;;6.92;100.00;102800.41;5291547;28;20028;-79
2021/12/19 18:43:17;;;;;;;15.10;10.60;;;;;;;6.92;100.00;102791.72;5275602;28;20016;-78
2021/12/19 18:45:56;;;;;;;16.63;11.10;;;;;;;7.00;100.00;102792.47;5279741;28;20032;-80
2021/12/19 18:48:50;;;;;;;14.73;10.70;;;;;;;6.70;99.80;102782.44;5274719;28;20524;-82
2021/12/19 18:54:20;;;;;;;16.40;11.67;;;;;;;6.87;100.00;102797.88;5281433;28;20036;-86
2021/12/19 18:56:51;;;;;;;16.53;11.33;;;;;;;6.94;100.00;102801.25;5282399;28;20032;-82
2021/12/19 18:59:24;;;;;;;16.23;11.20;;;;;;;6.93;99.96;102789.09;5282363;28;20032;-81
2021/12/19 19:02:08;;;;;;;15.67;11.70;;;;;;;6.98;100.00;102791.66;5283573;28;20035;-84
2021/12/19 19:04:40;;;;;;;16.80;10.63;;;;;;;6.88;100.00;102799.56;5288654;28;20059;-83
2021/12/19 19:07:13;;;;;;;20.40;12.77;;;;;;;6.70;100.00;102797.22;5287361;28;20315;-82
2021/12/19 19:09:46;;;;;;;18.47;12.60;;;;;;;6.86;99.97;102798.72;5285635;28;20067;-83
2021/12/19 19:12:18;;;;;;;19.67;12.43;;;;;;;6.69;100.00;102785.91;5284901;28;20482;-80
2021/12/19 19:14:51;;;;;;;19.10;11.83;;;;;;;6.99;100.00;102796.84;5285550;28;20015;-82
2021/12/19 19:17:24;;;;;;;17.70;11.63;;;;;;;7.02;100.00;102798.53;5283545;28;20060;-81
2021/12/19 19:19:55;;;;;;;21.00;12.50;;;;;;;6.97;99.92;102796.00;5282215;28;20789;-81
2021/12/19 19:22:26;;;;;;;22.53;12.37;;;;;;;7.00;99.80;102793.34;5284261;28;20036;-80
2021/12/19 19:24:59;;;;;;;18.13;12.33;;;;;;;6.93;100.00;102789.09;5265814;28;20024;-80
2021/12/19 19:27:31;;;;;;;20.40;13.23;;;;;;;7.06;99.66;102794.13;5280924;28;20082;-80
2021/12/19 19:30:03;;;;;;;13.87;10.47;;;;;;;6.85;100.00;102785.72;5311216;28;20062;-81
2021/12/19 19:32:36;;;;;;;17.53;11.20;;;;;;;6.83;100.00;102785.75;5308083;28;20028;-80
2021/12/19 19:35:07;;;;;;;17.03;11.80;;;;;;;6.80;100.00;102780.59;5291989;28;20035;-78
2021/12/19 19:37:53;;;;;;;19.50;11.20;;;;;;;6.93;100.00;102791.69;5293725;28;20024;-82
2021/12/19 19:40:40;;;;;;;16.93;10.73;;;;;;;7.05;100.00;102795.88;5300934;28;20028;-75
2021/12/19 19:49:14;;;;;;;16.80;10.00;;;;;;;7.00;99.87;102789.88;5256970;28;20064;-81
2021/12/19 19:51:48;;;;;;;22.40;10.03;;;;;;;7.00;100.00;102790.72;5297018;28;20126;-80
2021/12/19 19:54:23;;;;;;;13.57;10.20;;;;;;;7.10;99.74;102793.22;5306135;28;20027;-82
2021/12/19 19:56:55;;;;;;;;;;;;;;;7.29;99.37;102790.34;5305203;28;20024;-82
2021/12/19 19:59:28;;;;;;;18.33;10.87;;;;;;;6.94;99.65;102790.84;5316501;28;20293;-80
2021/12/19 20:02:04;;;;;;;16.57;10.97;;;;;;;7.06;100.00;102799.34;5313740;28;20465;-86
2021/12/19 20:04:37;;;;;;;17.20;10.53;;;;;;;6.95;100.00;102786.47;5299994;28;20069;-80
2021/12/19 20:07:11;;;;;;;24.47;13.03;;;;;;;7.11;100.00;102787.13;5295805;28;20012;-82
2021/12/19 20:09:43;;;;;;;19.50;12.80;;;;;;;7.04;99.25;102783.75;5298395;28;20112;-79
2021/12/19 20:12:14;;;;;;;18.30;10.77;;;;;;;7.00;100.00;102776.84;5311692;28;20071;-81
2021/12/19 20:14:45;;;;;;;20.53;11.17;;;;;;;6.94;99.92;102785.63;5317376;28;20713;-81
2021/12/19 20:17:17;;;;;;;18.40;9.67;;;;;;;7.07;99.88;102780.25;5298697;28;20141;-79
2021/12/19 20:19:48;;;;;;;17.30;8.70;;;;;;;7.01;100.00;102787.28;5293972;28;20032;-78
2021/12/19 20:22:19;;;;;;;15.70;8.97;;;;;;;7.04;99.89;102775.94;5303745;28;20020;-77
2021/12/19 20:24:52;;;;;;;20.47;9.83;;;;;;;6.97;99.97;102777.75;5298966;27;20036;-79
2021/12/19 20:27:24;;;;;;;16.40;8.67;;;;;;;6.83;100.00;102772.72;5295401;28;20448;-80
2021/12/19 20:29:55;;;;;;;18.07;8.80;;;;;;;6.95;100.00;102761.28;5294196;28;20032;-81
2021/12/19 20:32:27;;;;;;;15.03;8.70;;;;;;;6.76;100.00;102765.88;5305493;28;20026;-81
2021/12/19 20:34:58;;;;;;;15.97;8.30;;;;;;;6.97;100.00;102774.28;5305026;28;20090;-85
2021/12/19 20:37:29;;;;;;;19.10;8.97;;;;;;;6.81;100.00;102786.66;5292987;28;20031;-77
2021/12/19 20:40:03;;;;;;;15.87;9.07;;;;;;;6.74;100.00;102771.09;5297460;28;20081;-73
2021/12/19 20:42:35;;;;;;;14.73;8.32;;;;;;;6.57;100.00;102765.22;5292740;28;20028;-82
2021/12/19 20:45:09;;;;;;;14.43;7.97;;;;;;;6.84;100.00;102778.81;5295483;28;20012;-75
2021/12/19 20:47:40;;;;;;;19.57;8.73;;;;;;;6.70;100.00;102777.25;5289782;28;20531;-71
2021/12/19 20:50:17;;;;;;;17.10;8.77;;;;;;;6.75;100.00;102780.66;5292263;28;20093;-71
2021/12/19 20:52:48;;;;;;;16.57;8.80;;;;;;;6.83;100.00;102783.16;5293666;28;20019;-74
2021/12/19 20:55:20;;;;;;;16.93;10.03;;;;;;;6.77;100.00;102767.59;5293925;28;20103;-76
2021/12/19 20:57:52;;;;;;;17.83;9.27;;;;;;;6.83;100.00;102772.72;5293596;28;20099;-73
2021/12/19 21:00:23;;;;;;;20.13;8.97;;;;;;;6.66;100.00;102762.53;5293581;28;20106;-72
2021/12/19 21:02:55;;;;;;;13.33;8.43;;;;;;;6.94;99.61;102776.94;5292756;28;20024;-72
2021/12/19 21:05:26;;;;;;;17.40;8.67;;;;;;;6.92;100.00;102782.16;5292689;28;20100;-73
2021/12/19 21:07:59;;;;;;;18.57;9.23;;;;;;;6.91;100.00;102785.66;5293508;28;20055;-73
2021/12/19 21:10:32;;;;;;;16.43;8.70;;;;;;;6.80;99.89;102783.19;5293581;28;20253;-70
2021/12/19 21:13:05;;;;;;;19.43;9.10;;;;;;;6.89;100.00;102779.59;5293267;28;20027;-72
2021/12/19 21:21:16;;;;;;;16.97;9.83;;;;;;;6.91;100.00;102785.66;5291768;28;20474;-71
2021/12/19 21:23:48;;;;;;;19.97;8.67;;;;;;;6.89;100.00;102787.41;5293348;28;20036;-70
2021/12/19 21:26:19;;;;;;;21.73;8.87;;;;;;;6.98;100.00;102774.25;5291997;28;20028;-73
2021/12/19 21:28:50;;;;;;;14.50;8.50;;;;;;;6.89;100.00;102777.00;5293296;28;20031;-73
2021/12/19 21:31:24;;;;;;;15.73;8.77;;;;;;;6.82;100.00;102776.22;5292779;28;20042;-75
2021/12/19 21:33:59;;;;;;;15.25;8.15;;;;;;;6.92;100.00;102776.97;5294050;28;20024;-71
2021/12/19 21:39:21;;;;;;;14.60;7.80;;;;;;;6.90;100.00;102790.00;5305408;28;20043;-76
2021/12/19 21:41:52;;;;;;;20.97;8.17;;;;;;;7.04;100.00;102775.94;5292254;28;20024;-73
2021/12/19 21:44:23;;;;;;;15.90;8.47;;;;;;;6.96;100.00;102773.44;5305753;28;20059;-72
2021/12/19 21:46:55;;;;;;;12.53;7.77;;;;;;;6.95;100.00;102781.25;5302388;28;20021;-72
2021/12/19 21:49:26;;;;;;;18.80;8.23;;;;;;;6.73;100.00;102777.19;5298665;28;20032;-71
2021/12/19 21:51:58;;;;;;;17.27;8.50;;;;;;;7.03;100.00;102784.63;5293262;28;20110;-72
2021/12/19 21:54:29;;;;;;;20.10;10.77;;;;;;;6.99;100.00;102777.72;5297751;28;20027;-73
2021/12/19 21:57:01;;;;;;;19.23;10.17;;;;;;;7.01;100.00;102762.94;5310866;28;20035;-74
2021/12/19 21:59:32;;;;;;;16.47;10.37;;;;;;;6.98;100.00;102770.81;5304470;28;20121;-73
2021/12/19 22:02:04;;;;;;;20.03;9.87;;;;;;;6.88;100.00;102764.84;5299029;28;20028;-73
2021/12/19 22:04:35;;;;;;;19.97;8.97;;;;;;;6.91;100.00;102775.25;5295866;28;20032;-75
2021/12/19 22:07:06;;;;;;;19.57;9.47;;;;;;;7.07;100.00;102782.84;5298174;27;20055;-74
2021/12/19 22:09:38;;;;;;;17.73;8.87;;;;;;;7.03;100.00;102758.59;5303795;28;20099;-71
2021/12/19 22:12:24;;;;;;;15.30;9.03;;;;;;;6.85;100.00;102755.34;5292004;28;20182;-74
2021/12/19 22:17:45;;;;;;;19.10;9.07;;;;;;;6.87;100.00;102778.75;5292342;28;20079;-70
2021/12/19 22:20:16;;;;;;;20.73;9.77;;;;;;;6.92;100.00;102766.53;5291731;28;20102;-81
2021/12/19 22:22:47;;;;;;;16.07;8.57;;;;;;;6.96;100.00;102759.53;5291707;28;20467;-75
2021/12/19 22:25:19;;;;;;;18.53;8.43;;;;;;;6.97;100.00;102775.16;5289491;28;20039;-77
2021/12/19 22:27:52;;;;;;;21.80;9.07;;;;;;;6.88;100.00;102759.63;5290914;28;20792;-72
2021/12/19 22:30:25;;;;;;;14.87;8.00;;;;;;;7.02;100.00;102772.47;5290421;28;20081;-73
2021/12/19 22:32:58;;;;;;;21.37;9.30;;;;;;;6.97;100.00;102759.53;5289290;28;20031;-72
2021/12/19 22:35:30;;;;;;;20.40;9.40;;;;;;;6.92;100.00;102758.72;5292018;28;20444;-72
2021/12/19 22:38:01;;;;;;;17.57;8.97;;;;;;;6.83;100.00;102761.44;5291351;28;20026;-72
2021/12/19 22:40:33;;;;;;;17.13;7.83;;;;;;;7.01;100.00;102755.13;5292448;28;20989;-72
2021/12/19 22:43:06;;;;;;;18.20;8.77;;;;;;;6.91;100.00;102749.19;5291004;28;20778;-72
